Time;durP1;ratioP1;P1;durP2;ratioP2;P2;SDS_P1;SDS_P2;PMS_P1;PMS_P2;Temp;Humidity;BMP_temperature;BMP_pressure;BME280_temperature;BME280_humidity;BME280_pressure;Samples;Min_cycle;Max_cycle;Signal;HPM_P1;HPM_P2
2022/06/14 00:00:56;;;;;;;3.00;2.57;;;14.90;99.90;;;;;;5072160;28;20815;-65
2022/06/14 00:03:31;;;;;;;3.17;2.47;;;15.00;99.90;;;;;;5079066;28;20471;-65
2022/06/14 00:06:04;;;;;;;4.13;2.50;;;15.00;99.90;;;;;;5079367;28;20467;-65
2022/06/14 00:08:35;;;;;;;3.83;2.60;;;15.10;99.90;;;;;;5085185;28;20454;-64
2022/06/14 00:11:10;;;;;;;2.97;2.57;;;15.30;99.90;;;;;;5082756;28;20582;-64
2022/06/14 00:13:43;;;;;;;6.23;3.00;;;15.40;99.90;;;;;;5082325;28;20441;-64
2022/06/14 00:16:15;;;;;;;2.93;2.37;;;15.40;99.90;;;;;;5083396;28;20434;-65
2022/06/14 00:18:46;;;;;;;3.10;2.30;;;15.50;99.90;;;;;;5084556;28;20505;-64
2022/06/14 00:21:18;;;;;;;2.90;2.23;;;15.50;99.90;;;;;;5084036;28;20609;-65
2022/06/14 00:23:50;;;;;;;4.40;1.93;;;15.60;99.90;;;;;;5083485;28;20443;-63
2022/06/14 00:26:23;;;;;;;3.03;2.30;;;15.50;99.90;;;;;;5082744;28;20447;-63
2022/06/14 00:28:55;;;;;;;4.00;2.67;;;15.60;99.90;;;;;;5084011;28;20454;-63
2022/06/14 00:31:28;;;;;;;2.50;1.80;;;15.60;99.90;;;;;;5075651;28;20794;-63
2022/06/14 00:33:59;;;;;;;2.37;2.17;;;15.60;99.90;;;;;;5085116;28;20468;-63
2022/06/14 00:36:32;;;;;;;2.53;2.00;;;15.60;99.90;;;;;;5084091;28;20430;-63
2022/06/14 00:39:05;;;;;;;2.03;1.73;;;15.70;99.90;;;;;;5084336;28;20458;-64
2022/06/14 00:41:40;;;;;;;2.57;2.07;;;15.70;99.90;;;;;;5084051;28;20544;-63
2022/06/14 00:44:16;;;;;;;2.60;1.97;;;15.70;99.90;;;;;;5084125;28;20459;-62
2022/06/14 00:46:55;;;;;;;3.03;2.03;;;15.70;99.90;;;;;;5079433;28;20448;-64
2022/06/14 00:49:31;;;;;;;3.90;2.50;;;15.80;99.90;;;;;;5064294;28;20444;-65
2022/06/14 00:52:06;;;;;;;2.10;1.60;;;15.70;99.90;;;;;;5079460;28;20427;-64
2022/06/14 00:54:41;;;;;;;5.83;4.77;;;15.70;99.90;;;;;;5074771;28;20499;-63
2022/06/14 00:57:20;;;;;;;3.40;2.90;;;15.70;99.90;;;;;;5081801;28;20458;-65
2022/06/14 00:59:56;;;;;;;3.07;2.23;;;15.60;99.90;;;;;;5083490;28;20454;-65
2022/06/14 01:02:34;;;;;;;2.80;2.30;;;15.70;99.90;;;;;;5084071;28;20455;-65
2022/06/14 01:05:10;;;;;;;2.33;2.10;;;15.60;99.90;;;;;;5083486;28;20447;-66
2022/06/14 01:07:46;;;;;;;2.23;1.90;;;15.60;99.90;;;;;;5080300;28;20418;-65
2022/06/14 01:10:21;;;;;;;2.63;1.70;;;15.60;99.90;;;;;;5074197;28;20787;-65
2022/06/14 01:12:57;;;;;;;2.17;1.90;;;15.70;99.90;;;;;;5075239;28;20452;-66
2022/06/14 01:15:32;;;;;;;3.40;2.97;;;15.70;99.90;;;;;;5083210;28;20458;-65
2022/06/14 01:18:06;;;;;;;3.33;2.20;;;15.70;99.90;;;;;;5083712;28;20463;-65
2022/06/14 01:20:37;;;;;;;2.20;2.00;;;15.60;99.90;;;;;;5060047;28;20519;-65
2022/06/14 01:23:13;;;;;;;2.20;2.00;;;15.30;99.90;;;;;;5062867;28;20490;-64
2022/06/14 01:25:51;;;;;;;5.17;2.70;;;15.10;99.90;;;;;;5063560;28;20572;-64
2022/06/14 01:28:25;;;;;;;4.30;3.00;;;15.10;99.90;;;;;;5063956;28;20444;-66
2022/06/14 01:30:56;;;;;;;4.00;2.53;;;15.00;99.90;;;;;;5062257;28;20547;-66
2022/06/14 01:33:32;;;;;;;4.43;2.40;;;14.90;99.90;;;;;;5060822;28;20439;-65
2022/06/14 01:36:07;;;;;;;3.70;2.00;;;14.90;99.90;;;;;;5062285;28;20464;-65
2022/06/14 01:38:41;;;;;;;2.70;2.00;;;14.90;99.90;;;;;;5063226;28;20462;-65
2022/06/14 01:41:25;;;;;;;4.70;2.10;;;14.80;99.90;;;;;;5061484;28;20530;-67
2022/06/14 01:44:17;;;;;;;1.80;1.43;;;14.90;99.90;;;;;;5063908;28;20421;-65
2022/06/14 01:46:58;;;;;;;2.50;1.87;;;14.90;99.90;;;;;;5048731;28;20459;-65
2022/06/14 01:52:33;;;;;;;2.70;2.20;;;14.90;99.90;;;;;;5061780;28;20572;-64
2022/06/14 01:55:19;;;;;;;2.27;1.90;;;14.90;99.90;;;;;;5061312;28;20452;-65
2022/06/14 01:57:58;;;;;;;2.77;1.60;;;14.90;99.90;;;;;;5061074;28;20468;-66
2022/06/14 02:00:32;;;;;;;1.77;1.10;;;14.90;99.90;;;;;;5061483;28;20444;-63
2022/06/14 02:06:08;;;;;;;1.10;1.00;;;15.00;99.90;;;;;;5059426;28;20449;-66
2022/06/14 02:08:46;;;;;;;1.13;1.00;;;15.10;99.90;;;;;;5062986;28;20447;-65
2022/06/14 02:11:28;;;;;;;2.53;1.30;;;15.10;99.90;;;;;;5060918;28;20901;-65
2022/06/14 02:14:08;;;;;;;1.50;0.90;;;15.10;99.90;;;;;;5058258;28;20452;-65
2022/06/14 02:16:45;;;;;;;0.83;0.77;;;15.00;99.90;;;;;;5055665;28;20488;-64
2022/06/14 02:19:22;;;;;;;1.20;1.10;;;15.00;99.90;;;;;;5065695;28;20479;-63
2022/06/14 02:21:57;;;;;;;1.23;0.97;;;15.00;99.90;;;;;;5078445;28;20501;-64
2022/06/14 02:24:34;;;;;;;2.77;2.00;;;15.10;99.90;;;;;;5081229;28;20447;-64
2022/06/14 02:27:14;;;;;;;0.70;0.70;;;15.20;99.90;;;;;;5080578;28;20459;-65
2022/06/14 02:29:49;;;;;;;0.57;0.53;;;15.10;99.90;;;;;;5075680;28;20455;-67
2022/06/14 02:32:24;;;;;;;1.30;0.80;;;15.20;99.90;;;;;;5077531;28;20430;-66
2022/06/14 02:34:59;;;;;;;1.03;0.70;;;15.10;99.90;;;;;;5079724;28;20459;-66
2022/06/14 02:37:36;;;;;;;1.77;1.67;;;15.20;99.90;;;;;;5077142;28;20463;-66
2022/06/14 02:40:13;;;;;;;0.63;0.60;;;15.20;99.90;;;;;;5074487;28;20471;-66
2022/06/14 02:42:51;;;;;;;1.20;0.87;;;15.10;99.90;;;;;;5077946;28;20499;-66
2022/06/14 02:45:26;;;;;;;0.80;0.77;;;15.00;99.90;;;;;;5078111;28;20463;-67
2022/06/14 02:48:01;;;;;;;0.60;0.60;;;15.10;99.90;;;;;;5076942;28;20443;-66
2022/06/14 02:50:40;;;;;;;0.53;0.53;;;14.90;99.90;;;;;;5073893;28;20452;-66
2022/06/14 02:53:14;;;;;;;0.87;0.60;;;14.90;99.90;;;;;;5071601;28;20451;-66
2022/06/14 02:55:48;;;;;;;0.60;0.40;;;14.80;99.90;;;;;;5080460;28;20501;-66
2022/06/14 02:58:25;;;;;;;0.80;0.73;;;14.70;99.90;;;;;;5081327;28;20486;-65
2022/06/14 03:00:58;;;;;;;3.30;0.90;;;14.60;99.90;;;;;;5079088;28;20525;-66
2022/06/14 03:03:38;;;;;;;1.00;0.60;;;14.40;99.90;;;;;;5081105;28;20479;-65
2022/06/14 03:06:19;;;;;;;0.67;0.43;;;14.40;99.90;;;;;;5080426;28;20459;-65
2022/06/14 03:08:56;;;;;;;0.67;0.67;;;14.30;99.90;;;;;;5080836;28;20463;-67
2022/06/14 03:11:45;;;;;;;0.77;0.60;;;14.20;99.90;;;;;;5079551;28;20522;-66
2022/06/14 03:14:27;;;;;;;0.63;0.63;;;14.10;99.90;;;;;;5080599;28;20467;-64
2022/06/14 03:17:13;;;;;;;0.80;0.73;;;14.10;99.90;;;;;;5075453;28;20470;-68
2022/06/14 03:19:51;;;;;;;0.87;0.80;;;14.10;99.90;;;;;;5079435;28;20500;-64
2022/06/14 03:22:32;;;;;;;0.60;0.60;;;14.00;99.90;;;;;;5080444;28;20495;-65
2022/06/14 03:25:12;;;;;;;0.57;0.57;;;14.00;99.90;;;;;;5076857;28;20460;-65
2022/06/14 03:27:46;;;;;;;1.00;0.70;;;14.00;99.90;;;;;;5080030;28;20802;-65
2022/06/14 03:30:24;;;;;;;0.53;0.40;;;13.90;99.90;;;;;;5080902;28;20566;-66
2022/06/14 03:33:03;;;;;;;0.90;0.80;;;13.90;99.90;;;;;;5080873;28;20549;-66
2022/06/14 03:35:38;;;;;;;0.83;0.80;;;13.80;99.90;;;;;;5080594;28;20497;-66
2022/06/14 03:38:13;;;;;;;0.90;0.57;;;13.80;99.90;;;;;;5080692;28;20470;-64
2022/06/14 03:40:45;;;;;;;0.70;0.60;;;13.70;99.90;;;;;;5083356;28;20486;-64
2022/06/14 03:43:16;;;;;;;0.67;0.67;;;13.70;99.90;;;;;;5082987;28;20506;-63
2022/06/14 03:45:53;;;;;;;1.07;0.50;;;13.70;99.90;;;;;;5081063;28;20452;-63
2022/06/14 03:48:24;;;;;;;0.60;0.50;;;13.70;99.90;;;;;;5085387;28;20455;-63
2022/06/14 03:51:03;;;;;;;2.60;0.80;;;13.70;99.90;;;;;;5083958;28;20460;-62
2022/06/14 03:54:03;;;;;;;0.87;0.80;;;13.60;99.90;;;;;;5084614;28;20490;-64
2022/06/14 03:56:45;;;;;;;1.40;0.90;;;13.70;99.90;;;;;;5060584;28;20457;-64
2022/06/14 03:59:41;;;;;;;0.57;0.57;;;13.70;99.90;;;;;;5084605;28;20493;-63
2022/06/14 04:02:20;;;;;;;0.70;0.60;;;13.60;99.90;;;;;;5081123;28;20505;-64
2022/06/14 04:04:58;;;;;;;0.50;0.50;;;13.60;99.90;;;;;;5084700;28;20486;-63
2022/06/14 04:07:41;;;;;;;1.10;0.70;;;13.50;99.90;;;;;;5085400;28;20473;-63
2022/06/14 04:10:18;;;;;;;1.10;0.83;;;13.50;99.90;;;;;;5074007;28;20459;-64
2022/06/14 04:12:57;;;;;;;0.93;0.73;;;13.60;99.90;;;;;;5075872;28;20493;-63
2022/06/14 04:15:35;;;;;;;1.03;0.50;;;13.60;99.90;;;;;;5084988;28;20517;-63
2022/06/14 04:18:41;;;;;;;1.33;0.93;;;13.50;99.90;;;;;;5084475;28;20455;-63
2022/06/14 04:21:30;;;;;;;0.97;0.57;;;13.50;99.90;;;;;;5082839;28;20823;-63
2022/06/14 04:24:07;;;;;;;1.13;0.70;;;13.60;99.90;;;;;;5082941;28;20462;-63
2022/06/14 04:26:46;;;;;;;0.87;0.40;;;13.60;99.90;;;;;;5081979;28;20980;-63
2022/06/14 04:29:33;;;;;;;0.73;0.73;;;13.50;99.90;;;;;;5083212;28;20799;-63
2022/06/14 04:32:09;;;;;;;0.50;0.50;;;13.50;99.90;;;;;;5075385;28;20474;-63
2022/06/14 04:34:49;;;;;;;1.20;0.70;;;13.40;99.90;;;;;;5082047;28;20463;-64
2022/06/14 04:37:26;;;;;;;1.17;0.93;;;13.40;99.90;;;;;;5083581;28;20455;-63
2022/06/14 04:40:00;;;;;;;3.33;1.07;;;13.40;99.90;;;;;;5083181;28;21000;-63
2022/06/14 04:42:38;;;;;;;0.60;0.50;;;13.30;99.90;;;;;;5083384;28;20492;-64
2022/06/14 04:45:14;;;;;;;0.77;0.50;;;13.20;99.90;;;;;;5076512;28;20459;-64
2022/06/14 04:47:49;;;;;;;0.90;0.77;;;13.30;99.90;;;;;;5082952;28;20896;-64
2022/06/14 04:50:24;;;;;;;0.60;0.50;;;13.30;99.90;;;;;;5082036;28;20475;-64
2022/06/14 04:52:59;;;;;;;3.00;0.97;;;13.30;99.90;;;;;;5082741;28;20450;-64
2022/06/14 04:55:35;;;;;;;0.90;0.70;;;13.30;99.90;;;;;;5081518;28;20458;-63
2022/06/14 04:58:11;;;;;;;0.70;0.70;;;13.30;99.90;;;;;;5075552;28;20440;-63
2022/06/14 05:00:48;;;;;;;0.80;0.70;;;13.20;99.90;;;;;;5081626;28;20463;-63
2022/06/14 05:03:24;;;;;;;0.63;0.57;;;13.20;99.90;;;;;;5082733;28;20490;-63
2022/06/14 05:06:02;;;;;;;1.60;0.70;;;13.20;99.90;;;;;;5082355;28;20482;-63
2022/06/14 05:08:37;;;;;;;0.87;0.60;;;13.10;99.90;;;;;;5083616;28;20447;-63
2022/06/14 05:11:13;;;;;;;0.63;0.63;;;13.20;99.90;;;;;;5081311;28;20467;-64
2022/06/14 05:13:48;;;;;;;0.70;0.70;;;13.20;99.90;;;;;;5082442;28;20459;-64
2022/06/14 05:16:25;;;;;;;0.93;0.70;;;13.20;99.90;;;;;;5079885;28;20450;-63
2022/06/14 05:19:08;;;;;;;1.47;0.87;;;13.30;99.90;;;;;;5008833;28;2109029;-63
2022/06/14 05:21:47;;;;;;;0.67;0.53;;;13.20;99.90;;;;;;5083736;28;20212;-64
2022/06/14 05:24:19;;;;;;;0.73;0.67;;;13.20;99.90;;;;;;5082210;28;20508;-63
2022/06/14 05:27:11;;;;;;;0.80;0.60;;;13.10;99.90;;;;;;5080442;28;20467;-63
2022/06/14 05:29:49;;;;;;;0.70;0.63;;;13.20;99.90;;;;;;5082905;28;20467;-63
2022/06/14 05:32:29;;;;;;;3.80;0.70;;;13.20;99.90;;;;;;5083495;28;20461;-63
2022/06/14 05:35:22;;;;;;;0.90;0.73;;;13.20;99.90;;;;;;5082614;28;20560;-63
2022/06/14 05:38:00;;;;;;;1.80;0.87;;;13.10;99.90;;;;;;5084034;28;20451;-63
2022/06/14 05:40:36;;;;;;;0.80;0.63;;;13.10;99.90;;;;;;5082335;28;20463;-63
2022/06/14 05:43:14;;;;;;;1.10;0.80;;;13.20;99.90;;;;;;5083546;28;20494;-63
2022/06/14 05:45:49;;;;;;;1.57;0.97;;;13.10;99.90;;;;;;5081691;28;20463;-63
2022/06/14 05:48:24;;;;;;;0.63;0.57;;;13.10;99.90;;;;;;5081708;28;20946;-63
2022/06/14 05:50:58;;;;;;;0.80;0.77;;;13.00;99.90;;;;;;5080279;28;20469;-63
2022/06/14 05:53:36;;;;;;;0.97;0.67;;;13.00;99.90;;;;;;5082621;28;20467;-63
2022/06/14 05:56:15;;;;;;;0.53;0.43;;;13.00;99.90;;;;;;5081689;28;20471;-64
2022/06/14 05:58:51;;;;;;;0.97;0.60;;;12.90;99.90;;;;;;5082247;28;20443;-63
2022/06/14 06:01:28;;;;;;;0.93;0.87;;;12.90;99.90;;;;;;5080367;28;20526;-64
2022/06/14 06:04:05;;;;;;;0.53;0.53;;;12.80;99.90;;;;;;5079675;28;20935;-64
2022/06/14 06:06:40;;;;;;;0.80;0.50;;;12.80;99.90;;;;;;5082745;28;20849;-63
2022/06/14 06:09:20;;;;;;;0.70;0.70;;;12.70;99.90;;;;;;5082423;28;20461;-63
2022/06/14 06:11:55;;;;;;;0.70;0.50;;;12.70;99.90;;;;;;5078229;28;20455;-63
2022/06/14 06:14:33;;;;;;;0.80;0.60;;;12.70;99.90;;;;;;5083027;28;20451;-64
2022/06/14 06:17:12;;;;;;;0.70;0.70;;;12.70;99.90;;;;;;5082956;28;20443;-63
2022/06/14 06:19:48;;;;;;;1.47;0.80;;;12.70;99.90;;;;;;5081621;28;20570;-63
2022/06/14 06:22:23;;;;;;;0.90;0.80;;;12.80;99.90;;;;;;5075783;28;20474;-63
2022/06/14 06:25:00;;;;;;;0.70;0.67;;;12.90;99.90;;;;;;5081143;28;20483;-63
2022/06/14 06:27:37;;;;;;;1.20;1.10;;;12.90;99.90;;;;;;5078878;28;20455;-64
2022/06/14 06:30:14;;;;;;;1.30;0.93;;;12.90;99.90;;;;;;5082116;28;20473;-64
2022/06/14 06:32:45;;;;;;;1.17;1.07;;;12.80;99.90;;;;;;5081876;28;20548;-64
2022/06/14 06:35:17;;;;;;;0.87;0.87;;;12.80;99.90;;;;;;5082131;28;20542;-63
2022/06/14 06:37:52;;;;;;;1.07;0.80;;;12.80;99.90;;;;;;5082837;28;20478;-63
2022/06/14 06:40:25;;;;;;;1.37;1.03;;;12.80;99.90;;;;;;5082019;28;20466;-63
2022/06/14 06:43:00;;;;;;;0.77;0.60;;;12.90;99.90;;;;;;5081636;28;20454;-63
2022/06/14 06:45:34;;;;;;;1.27;0.80;;;12.80;99.90;;;;;;5072002;28;20462;-63
2022/06/14 06:48:11;;;;;;;0.90;0.80;;;12.90;99.90;;;;;;5082572;28;20432;-63
2022/06/14 06:50:47;;;;;;;1.10;1.00;;;12.90;99.90;;;;;;5081883;28;20451;-63
2022/06/14 06:53:19;;;;;;;0.83;0.83;;;12.80;99.90;;;;;;5081185;28;20538;-63
2022/06/14 06:55:57;;;;;;;1.00;0.77;;;12.80;99.90;;;;;;5069702;28;20471;-63
2022/06/14 06:58:31;;;;;;;0.93;0.70;;;12.70;99.90;;;;;;5080982;28;20469;-63
2022/06/14 07:01:04;;;;;;;0.80;0.80;;;12.80;99.90;;;;;;5080642;28;20463;-64
2022/06/14 07:03:42;;;;;;;1.30;0.90;;;12.70;99.90;;;;;;5081709;28;20494;-64
2022/06/14 07:06:19;;;;;;;1.03;0.93;;;12.70;99.90;;;;;;5080721;28;20504;-64
2022/06/14 07:09:00;;;;;;;1.53;1.37;;;12.60;99.90;;;;;;5077343;28;20451;-63
2022/06/14 07:11:38;;;;;;;1.40;1.20;;;12.70;99.90;;;;;;5079212;28;20470;-63
2022/06/14 07:14:15;;;;;;;1.10;1.00;;;12.60;99.90;;;;;;5079821;28;20471;-63
2022/06/14 07:16:53;;;;;;;1.40;0.90;;;12.80;99.90;;;;;;5081448;28;20471;-63
2022/06/14 07:19:31;;;;;;;1.47;1.27;;;12.80;99.90;;;;;;5081213;28;20479;-63
2022/06/14 07:22:09;;;;;;;2.43;1.50;;;12.80;99.90;;;;;;5079364;28;20465;-63
2022/06/14 07:24:50;;;;;;;1.57;1.47;;;12.70;99.90;;;;;;5081107;28;20490;-63
2022/06/14 07:27:46;;;;;;;2.13;1.60;;;12.70;99.90;;;;;;5081715;28;20774;-63
2022/06/14 07:30:21;;;;;;;2.40;1.27;;;12.80;99.90;;;;;;5081782;28;20474;-63
2022/06/14 07:32:56;;;;;;;2.13;1.30;;;12.90;99.90;;;;;;5078688;28;20451;-63
2022/06/14 07:35:32;;;;;;;2.53;1.50;;;12.90;99.90;;;;;;5080559;28;20477;-63
2022/06/14 07:38:11;;;;;;;2.20;1.50;;;12.80;99.90;;;;;;5079372;28;20459;-63
2022/06/14 07:40:57;;;;;;;1.80;1.70;;;12.80;99.90;;;;;;5079075;28;20478;-63
2022/06/14 07:43:33;;;;;;;1.90;1.63;;;12.70;99.90;;;;;;5078975;28;20462;-63
2022/06/14 07:46:10;;;;;;;2.40;1.60;;;12.70;99.90;;;;;;5081111;28;20542;-63
2022/06/14 07:48:47;;;;;;;1.43;1.33;;;12.50;99.90;;;;;;5075827;28;20647;-63
2022/06/14 07:51:25;;;;;;;1.97;1.53;;;12.60;99.90;;;;;;5079978;28;20471;-63
2022/06/14 07:54:02;;;;;;;4.57;1.40;;;12.60;99.90;;;;;;5075018;28;20466;-63
2022/06/14 07:56:45;;;;;;;1.53;1.43;;;12.60;99.90;;;;;;5079685;28;20875;-63
2022/06/14 07:59:21;;;;;;;2.20;1.60;;;12.50;99.90;;;;;;5080685;28;20542;-63
2022/06/14 08:01:58;;;;;;;2.13;1.50;;;12.50;99.90;;;;;;5080074;28;20498;-63
2022/06/14 08:04:34;;;;;;;1.40;1.30;;;12.50;99.90;;;;;;5080478;28;20493;-63
2022/06/14 08:07:07;;;;;;;2.73;1.40;;;12.50;99.90;;;;;;5080487;28;20471;-63
2022/06/14 08:09:43;;;;;;;2.00;1.17;;;12.40;99.90;;;;;;5080556;28;20462;-63
2022/06/14 08:12:22;;;;;;;2.13;1.20;;;12.50;99.90;;;;;;5080994;28;20471;-63
2022/06/14 08:15:01;;;;;;;1.73;1.60;;;12.50;99.90;;;;;;5078814;28;20473;-63
2022/06/14 08:17:38;;;;;;;1.70;1.30;;;12.50;99.90;;;;;;5079938;28;20467;-63
2022/06/14 08:20:13;;;;;;;1.47;1.30;;;12.50;99.90;;;;;;5080243;28;20489;-63
2022/06/14 08:22:48;;;;;;;2.70;1.47;;;12.50;99.90;;;;;;5080222;28;20463;-63
2022/06/14 08:25:23;;;;;;;2.50;1.57;;;12.50;99.90;;;;;;5079277;28;20509;-63
2022/06/14 08:28:00;;;;;;;1.77;1.30;;;12.50;99.90;;;;;;5084139;28;20461;-63
2022/06/14 08:30:36;;;;;;;1.83;1.30;;;12.50;99.90;;;;;;5083409;28;20469;-63
2022/06/14 08:33:15;;;;;;;1.73;1.37;;;12.50;99.90;;;;;;5083648;28;20587;-63
2022/06/14 08:35:50;;;;;;;1.57;1.47;;;12.50;99.90;;;;;;5083815;28;20450;-63
2022/06/14 08:38:27;;;;;;;1.80;1.43;;;12.30;99.90;;;;;;5083901;28;20469;-62
2022/06/14 08:41:20;;;;;;;2.37;1.60;;;12.20;99.90;;;;;;5082829;28;20471;-63
2022/06/14 08:43:55;;;;;;;2.03;1.83;;;12.30;99.90;;;;;;5083962;28;20537;-63
2022/06/14 08:46:41;;;;;;;3.00;1.30;;;12.20;99.90;;;;;;5081988;28;21006;-62
2022/06/14 08:49:26;;;;;;;2.20;1.80;;;12.10;99.90;;;;;;5080141;28;20561;-63
2022/06/14 08:52:35;;;;;;;1.53;1.43;;;12.10;99.90;;;;;;5079123;28;20467;-63
2022/06/14 08:55:19;;;;;;;2.30;1.63;;;12.00;99.90;;;;;;5083123;28;20535;-63
2022/06/14 08:58:15;;;;;;;2.43;2.00;;;11.90;99.90;;;;;;5083394;28;20825;-63
2022/06/14 09:00:57;;;;;;;2.13;1.53;;;11.90;99.90;;;;;;5083376;28;20458;-63
2022/06/14 09:04:11;;;;;;;1.60;1.50;;;11.90;99.90;;;;;;5080263;28;20444;-63
2022/06/14 09:07:08;;;;;;;1.43;1.30;;;11.90;99.90;;;;;;5083087;28;20531;-63
2022/06/14 09:10:13;;;;;;;2.70;1.70;;;11.90;99.90;;;;;;5083325;28;20455;-63
2022/06/14 09:13:15;;;;;;;3.20;1.77;;;11.90;99.90;;;;;;5079897;28;20463;-64
2022/06/14 09:16:31;;;;;;;1.73;1.00;;;12.00;99.90;;;;;;5082707;28;20853;-63
2022/06/14 09:19:15;;;;;;;2.47;1.80;;;11.80;99.90;;;;;;5074490;28;20487;-63
2022/06/14 09:22:00;;;;;;;2.77;2.07;;;11.80;99.90;;;;;;5082308;28;20467;-63
2022/06/14 09:24:56;;;;;;;2.37;2.13;;;11.80;99.90;;;;;;5082513;28;20491;-63
2022/06/14 09:28:18;;;;;;;2.40;1.63;;;11.80;99.90;;;;;;5079926;28;20478;-63
2022/06/14 09:31:12;;;;;;;4.00;1.63;;;11.80;99.90;;;;;;5070254;28;20460;-63
2022/06/14 09:34:14;;;;;;;2.57;2.00;;;11.80;99.90;;;;;;5079275;28;20459;-62
2022/06/14 09:37:18;;;;;;;3.17;1.93;;;11.80;99.90;;;;;;5054872;28;20443;-63
2022/06/14 09:40:13;;;;;;;1.87;1.53;;;11.80;99.90;;;;;;5082045;28;20469;-63
2022/06/14 09:42:57;;;;;;;2.07;1.93;;;11.80;99.90;;;;;;5083137;28;20828;-63
2022/06/14 09:45:45;;;;;;;2.40;1.83;;;11.70;99.90;;;;;;5082568;28;20577;-63
2022/06/14 09:49:12;;;;;;;1.57;1.47;;;11.80;99.90;;;;;;5081343;28;20471;-63
2022/06/14 09:52:30;;;;;;;2.70;1.60;;;11.90;99.90;;;;;;5079457;28;20458;-64
2022/06/14 09:55:28;;;;;;;1.73;1.50;;;11.90;99.90;;;;;;5019429;28;20469;-63
2022/06/14 09:58:25;;;;;;;2.60;2.27;;;11.80;99.90;;;;;;5019965;28;20472;-63
2022/06/14 10:01:04;;;;;;;3.03;2.10;;;11.80;99.90;;;;;;5019367;28;20466;-64
2022/06/14 10:04:03;;;;;;;2.43;2.20;;;11.80;99.90;;;;;;5018299;28;20462;-63
2022/06/14 10:06:55;;;;;;;3.27;2.33;;;11.70;99.90;;;;;;5015903;28;20489;-63
2022/06/14 10:09:49;;;;;;;2.63;2.10;;;11.70;99.90;;;;;;5017265;28;20462;-64
2022/06/14 10:12:54;;;;;;;4.37;2.43;;;11.70;99.90;;;;;;5020591;28;20454;-63
2022/06/14 10:15:35;;;;;;;3.83;2.50;;;11.70;99.90;;;;;;5018216;28;20565;-63
2022/06/14 10:18:47;;;;;;;3.50;2.83;;;11.70;99.90;;;;;;5019728;28;20930;-64
2022/06/14 10:21:21;;;;;;;2.83;2.30;;;11.80;99.90;;;;;;5013135;28;20477;-63
2022/06/14 10:24:02;;;;;;;2.17;1.67;;;11.80;99.90;;;;;;5021165;28;20442;-63
2022/06/14 10:29:46;;;;;;;2.50;2.03;;;11.80;99.90;;;;;;5062839;28;20945;-63
2022/06/14 10:32:45;;;;;;;2.87;2.50;;;11.70;99.90;;;;;;5082039;28;20463;-64
2022/06/14 10:35:21;;;;;;;3.03;2.50;;;11.60;99.90;;;;;;5078591;28;20426;-63
2022/06/14 10:38:15;;;;;;;2.17;1.50;;;11.60;99.90;;;;;;5081044;28;20471;-63
2022/06/14 10:40:54;;;;;;;3.83;2.00;;;11.70;99.90;;;;;;5081443;28;20466;-63
2022/06/14 10:43:35;;;;;;;2.83;2.10;;;11.70;99.90;;;;;;5082021;28;20485;-63
2022/06/14 10:46:12;;;;;;;5.00;2.47;;;11.70;99.90;;;;;;5081649;28;20503;-63
2022/06/14 10:49:23;;;;;;;2.40;2.20;;;11.80;99.90;;;;;;5070444;28;20459;-63
2022/06/14 10:52:21;;;;;;;3.03;2.47;;;11.80;99.90;;;;;;5078034;28;20463;-64
2022/06/14 10:55:17;;;;;;;3.13;2.10;;;11.80;99.90;;;;;;5071561;28;20584;-63
2022/06/14 10:58:07;;;;;;;2.13;1.93;;;11.80;99.90;;;;;;5075750;28;20456;-63
2022/06/14 11:00:45;;;;;;;2.43;2.23;;;11.90;99.90;;;;;;5081311;28;20782;-63
2022/06/14 11:03:45;;;;;;;4.60;2.70;;;11.90;99.90;;;;;;5082259;28;20459;-64
2022/06/14 11:06:45;;;;;;;3.50;2.57;;;11.90;99.90;;;;;;5080896;28;20493;-63
2022/06/14 11:09:28;;;;;;;3.83;2.73;;;11.90;99.90;;;;;;5048185;28;20467;-63
2022/06/14 11:12:33;;;;;;;4.00;2.87;;;11.90;99.90;;;;;;5081441;28;20463;-63
2022/06/14 11:15:10;;;;;;;5.07;3.17;;;12.00;99.90;;;;;;5080121;28;20459;-63
2022/06/14 11:18:04;;;;;;;2.40;2.20;;;11.90;99.90;;;;;;5080927;28;20470;-63
2022/06/14 11:20:49;;;;;;;2.60;2.13;;;11.80;99.90;;;;;;5080289;28;20494;-63
2022/06/14 11:23:24;;;;;;;5.07;3.37;;;11.80;99.90;;;;;;5080948;28;20471;-63
2022/06/14 11:26:06;;;;;;;5.20;3.13;;;11.80;99.90;;;;;;5080384;28;21110;-64
2022/06/14 11:28:45;;;;;;;3.93;2.90;;;11.80;99.90;;;;;;5082067;28;20457;-62
2022/06/14 11:31:24;;;;;;;5.10;3.17;;;11.80;99.90;;;;;;5081286;28;20459;-63
2022/06/14 11:34:24;;;;;;;3.27;2.73;;;11.70;99.90;;;;;;5082771;28;20436;-63
2022/06/14 11:37:26;;;;;;;4.50;2.97;;;11.60;99.90;;;;;;5080593;28;20458;-65
2022/06/14 11:40:00;;;;;;;3.87;3.03;;;11.50;99.90;;;;;;5074524;28;20935;-63
2022/06/14 11:42:34;;;;;;;4.03;2.70;;;11.60;99.90;;;;;;5082063;28;20455;-63
2022/06/14 11:45:21;;;;;;;4.07;3.10;;;11.60;99.90;;;;;;5080817;28;20463;-63
2022/06/14 11:47:57;;;;;;;3.83;2.87;;;11.50;99.90;;;;;;5080751;28;20467;-63
2022/06/14 11:50:37;;;;;;;6.73;3.10;;;11.60;99.90;;;;;;5069951;28;20518;-63
2022/06/14 11:53:48;;;;;;;3.00;2.30;;;11.60;99.90;;;;;;5077844;28;20527;-64
2022/06/14 11:56:29;;;;;;;4.30;2.80;;;11.70;99.90;;;;;;5036095;28;20461;-63
2022/06/14 11:59:25;;;;;;;4.33;3.13;;;11.70;99.90;;;;;;5038178;28;21006;-64
2022/06/14 12:02:07;;;;;;;4.13;2.90;;;11.70;99.90;;;;;;5051608;28;20473;-63
2022/06/14 12:04:48;;;;;;;3.37;2.43;;;11.70;99.90;;;;;;5041511;28;21287;-63
2022/06/14 12:07:26;;;;;;;2.73;2.33;;;11.70;99.90;;;;;;5036046;28;21021;-64
2022/06/14 12:10:44;;;;;;;3.40;2.73;;;11.60;99.90;;;;;;5041102;28;20493;-63
2022/06/14 12:13:41;;;;;;;4.30;3.47;;;11.60;99.90;;;;;;5016374;28;20475;-63
2022/06/14 12:16:16;;;;;;;4.40;3.67;;;11.60;99.90;;;;;;5036852;28;20461;-63
2022/06/14 12:18:56;;;;;;;4.03;2.90;;;11.60;99.90;;;;;;5041715;28;21030;-63
2022/06/14 12:21:44;;;;;;;3.43;2.23;;;11.50;99.90;;;;;;5040349;28;20448;-63
2022/06/14 12:24:21;;;;;;;6.90;3.63;;;11.50;99.90;;;;;;5040951;28;20479;-63
2022/06/14 12:26:59;;;;;;;3.00;2.67;;;11.50;99.90;;;;;;5039685;28;20497;-63
2022/06/14 12:29:36;;;;;;;3.77;2.70;;;11.40;99.90;;;;;;5041805;28;20472;-63
2022/06/14 12:32:14;;;;;;;3.97;2.80;;;11.40;99.90;;;;;;5053112;28;20456;-63
2022/06/14 12:34:48;;;;;;;3.17;2.33;;;11.30;99.90;;;;;;5084180;28;20504;-63
2022/06/14 12:37:34;;;;;;;4.10;2.40;;;11.30;99.90;;;;;;5082624;28;20467;-63
2022/06/14 12:40:11;;;;;;;3.23;2.60;;;11.30;99.90;;;;;;5083137;28;20469;-63
2022/06/14 12:42:46;;;;;;;3.27;2.40;;;11.30;99.90;;;;;;5083983;28;20482;-63
2022/06/14 12:45:22;;;;;;;3.67;2.80;;;11.30;99.90;;;;;;5083647;28;20502;-64
2022/06/14 12:48:05;;;;;;;5.07;2.70;;;11.40;99.90;;;;;;5083522;28;20569;-63
2022/06/14 12:50:40;;;;;;;4.10;2.87;;;11.40;99.90;;;;;;5080966;28;21012;-63
2022/06/14 12:53:19;;;;;;;3.37;2.70;;;11.50;99.90;;;;;;5083322;28;20472;-63
2022/06/14 12:55:55;;;;;;;2.87;2.53;;;11.50;99.90;;;;;;5083555;28;20470;-63
2022/06/14 12:58:36;;;;;;;3.90;2.53;;;11.60;99.90;;;;;;5084036;28;20462;-63
2022/06/14 13:01:16;;;;;;;3.97;2.90;;;11.50;99.90;;;;;;5071960;28;20463;-63
2022/06/14 13:03:53;;;;;;;4.40;2.50;;;11.50;99.90;;;;;;5083884;28;20892;-62
2022/06/14 13:06:58;;;;;;;4.07;2.90;;;11.40;99.90;;;;;;5082898;28;20517;-63
2022/06/14 13:09:40;;;;;;;2.57;2.30;;;11.50;99.90;;;;;;5075221;28;20451;-63
2022/06/14 13:12:26;;;;;;;4.00;3.27;;;11.50;99.90;;;;;;5081500;28;20467;-63
2022/06/14 13:15:04;;;;;;;3.13;2.40;;;11.60;99.90;;;;;;5077210;28;20552;-63
2022/06/14 13:17:53;;;;;;;3.27;2.67;;;11.50;99.90;;;;;;5074973;28;20458;-63
2022/06/14 13:20:33;;;;;;;4.10;2.70;;;11.50;99.90;;;;;;5081547;28;20479;-63
2022/06/14 13:23:27;;;;;;;2.37;2.07;;;11.60;99.90;;;;;;5083704;28;20466;-63
2022/06/14 13:26:25;;;;;;;4.97;3.07;;;11.60;99.90;;;;;;5076393;28;20468;-63
2022/06/14 13:29:15;;;;;;;2.93;2.63;;;11.60;99.90;;;;;;5064537;28;20896;-63
2022/06/14 13:32:01;;;;;;;2.30;2.00;;;11.60;99.90;;;;;;5075815;28;20462;-63
2022/06/14 13:34:50;;;;;;;2.90;2.27;;;11.60;99.90;;;;;;5081213;28;20471;-63
2022/06/14 13:37:36;;;;;;;2.97;2.67;;;11.70;99.90;;;;;;5080809;28;20473;-62
2022/06/14 13:40:11;;;;;;;1.97;1.77;;;11.80;99.90;;;;;;5075344;28;20473;-63
2022/06/14 13:42:51;;;;;;;3.20;2.77;;;11.70;99.90;;;;;;5082827;28;20463;-63
2022/06/14 13:45:31;;;;;;;2.70;2.10;;;11.70;99.90;;;;;;5081129;28;20585;-63
2022/06/14 13:48:10;;;;;;;3.33;2.60;;;11.80;99.90;;;;;;5080686;28;20985;-63
2022/06/14 13:50:46;;;;;;;3.83;2.47;;;11.80;99.90;;;;;;5083223;28;20483;-63
2022/06/14 13:53:22;;;;;;;2.87;2.27;;;11.80;99.90;;;;;;5063950;28;20467;-62
2022/06/14 13:56:02;;;;;;;2.50;2.30;;;11.80;99.90;;;;;;5078044;28;20526;-63
2022/06/14 13:58:39;;;;;;;4.60;2.27;;;11.80;99.90;;;;;;5080047;28;20486;-63
2022/06/14 14:01:17;;;;;;;4.20;2.87;;;11.90;99.90;;;;;;5072303;28;20951;-63
2022/06/14 14:03:52;;;;;;;3.00;2.50;;;11.90;99.90;;;;;;5069190;28;20498;-63
2022/06/14 14:06:31;;;;;;;4.00;2.60;;;12.00;99.90;;;;;;5075172;28;20458;-63
2022/06/14 14:09:30;;;;;;;3.40;2.60;;;12.00;99.90;;;;;;5082240;28;20493;-63